sensor_id;sensor_type;location;lat;lon;timestamp;pressure;altitude;pressure_sealevel;temperature;humidity
10606;BME280;5350;42.698;23.148;2023-07-29T00:02:13;93515.81;;;17.93;72.38
10606;BME280;5350;42.698;23.148;2023-07-29T00:04:40;93515.25;;;18.00;73.78
10606;BME280;5350;42.698;23.148;2023-07-29T00:07:07;93529.88;;;18.06;72.33
10606;BME280;5350;42.698;23.148;2023-07-29T00:09:35;93526.66;;;18.00;73.12
10606;BME280;5350;42.698;23.148;2023-07-29T00:12:04;93531.69;;;17.90;73.93
10606;BME280;5350;42.698;23.148;2023-07-29T00:14:30;93505.88;;;17.78;74.92
10606;BME280;5350;42.698;23.148;2023-07-29T00:16:57;93508.31;;;17.83;75.18
10606;BME280;5350;42.698;23.148;2023-07-29T00:19:25;93525.91;;;17.88;75.08
10606;BME280;5350;42.698;23.148;2023-07-29T00:21:53;93526.25;;;17.86;75.27
10606;BME280;5350;42.698;23.148;2023-07-29T00:24:20;93523.41;;;17.79;75.26
10606;BME280;5350;42.698;23.148;2023-07-29T00:26:49;93517.16;;;17.87;75.71
10606;BME280;5350;42.698;23.148;2023-07-29T00:29:15;93468.13;;;17.61;75.44
10606;BME280;5350;42.698;23.148;2023-07-29T00:31:41;93507.09;;;17.81;75.39
10606;BME280;5350;42.698;23.148;2023-07-29T00:34:08;93506.94;;;18.01;75.42
10606;BME280;5350;42.698;23.148;2023-07-29T00:36:36;93510.13;;;18.07;74.60
10606;BME280;5350;42.698;23.148;2023-07-29T00:39:03;93506.63;;;17.91;74.68
10606;BME280;5350;42.698;23.148;2023-07-29T00:41:30;93501.47;;;17.70;76.04
10606;BME280;5350;42.698;23.148;2023-07-29T00:43:58;93507.22;;;17.72;76.73
10606;BME280;5350;42.698;23.148;2023-07-29T00:46:27;93505.56;;;17.68;77.46
10606;BME280;5350;42.698;23.148;2023-07-29T00:48:55;93503.00;;;17.59;78.09
10606;BME280;5350;42.698;23.148;2023-07-29T00:51:22;93517.63;;;17.65;80.00
10606;BME280;5350;42.698;23.148;2023-07-29T00:53:48;93520.28;;;17.65;80.35
10606;BME280;5350;42.698;23.148;2023-07-29T00:56:15;93514.88;;;17.62;80.77
10606;BME280;5350;42.698;23.148;2023-07-29T00:58:42;93507.13;;;17.56;79.66
10606;BME280;5350;42.698;23.148;2023-07-29T01:01:10;93508.34;;;17.59;78.82
10606;BME280;5350;42.698;23.148;2023-07-29T01:03:37;93512.69;;;17.51;79.83
10606;BME280;5350;42.698;23.148;2023-07-29T01:06:12;93515.63;;;17.38;81.17
10606;BME280;5350;42.698;23.148;2023-07-29T01:08:46;93511.31;;;17.45;81.61
10606;BME280;5350;42.698;23.148;2023-07-29T01:11:23;93505.03;;;17.50;82.05
10606;BME280;5350;42.698;23.148;2023-07-29T01:13:58;93472.13;;;17.30;81.35
10606;BME280;5350;42.698;23.148;2023-07-29T01:16:31;93510.13;;;17.31;82.76
10606;BME280;5350;42.698;23.148;2023-07-29T01:19:05;93507.47;;;17.19;83.56
10606;BME280;5350;42.698;23.148;2023-07-29T01:21:33;93510.31;;;17.14;83.59
10606;BME280;5350;42.698;23.148;2023-07-29T01:24:04;93512.31;;;17.05;84.52
10606;BME280;5350;42.698;23.148;2023-07-29T01:26:31;93509.44;;;17.10;84.02
10606;BME280;5350;42.698;23.148;2023-07-29T01:28:57;93506.13;;;17.25;83.88
10606;BME280;5350;42.698;23.148;2023-07-29T01:31:30;93511.66;;;17.32;83.03
10606;BME280;5350;42.698;23.148;2023-07-29T01:34:00;93517.41;;;17.22;83.68
10606;BME280;5350;42.698;23.148;2023-07-29T01:36:31;93511.09;;;17.14;84.27
10606;BME280;5350;42.698;23.148;2023-07-29T01:39:02;93512.31;;;17.05;82.64
10606;BME280;5350;42.698;23.148;2023-07-29T01:41:31;93505.88;;;16.94;83.98
10606;BME280;5350;42.698;23.148;2023-07-29T01:43:58;93498.75;;;16.86;84.18
10606;BME280;5350;42.698;23.148;2023-07-29T01:46:25;93504.66;;;16.79;84.29
10606;BME280;5350;42.698;23.148;2023-07-29T01:48:52;93499.19;;;16.75;84.86
10606;BME280;5350;42.698;23.148;2023-07-29T01:51:19;93512.09;;;16.98;84.98
10606;BME280;5350;42.698;23.148;2023-07-29T01:53:46;93501.13;;;16.87;85.31
10606;BME280;5350;42.698;23.148;2023-07-29T01:56:13;93502.63;;;16.76;85.70
10606;BME280;5350;42.698;23.148;2023-07-29T01:58:41;93505.19;;;16.72;86.90
10606;BME280;5350;42.698;23.148;2023-07-29T02:01:08;93504.22;;;16.77;86.21
10606;BME280;5350;42.698;23.148;2023-07-29T02:03:35;93511.84;;;16.78;87.23
10606;BME280;5350;42.698;23.148;2023-07-29T02:06:02;93507.31;;;16.91;87.17
10606;BME280;5350;42.698;23.148;2023-07-29T02:08:28;93510.06;;;16.83;88.42
10606;BME280;5350;42.698;23.148;2023-07-29T02:10:55;93504.41;;;16.84;87.29
10606;BME280;5350;42.698;23.148;2023-07-29T02:13:22;93503.97;;;16.82;87.66
10606;BME280;5350;42.698;23.148;2023-07-29T02:15:50;93507.75;;;16.81;87.98
10606;BME280;5350;42.698;23.148;2023-07-29T02:18:17;93526.06;;;16.62;88.99
10606;BME280;5350;42.698;23.148;2023-07-29T02:20:44;93498.88;;;16.44;90.91
10606;BME280;5350;42.698;23.148;2023-07-29T02:23:14;93496.16;;;16.53;90.14
10606;BME280;5350;42.698;23.148;2023-07-29T02:25:41;93499.00;;;16.48;89.78
10606;BME280;5350;42.698;23.148;2023-07-29T02:28:08;93511.06;;;16.45;91.47
10606;BME280;5350;42.698;23.148;2023-07-29T02:30:34;93524.06;;;16.59;90.93
10606;BME280;5350;42.698;23.148;2023-07-29T02:33:03;93507.81;;;16.40;91.27
10606;BME280;5350;42.698;23.148;2023-07-29T02:35:29;93504.50;;;16.31;92.05
10606;BME280;5350;42.698;23.148;2023-07-29T02:37:56;93498.50;;;16.34;91.88
10606;BME280;5350;42.698;23.148;2023-07-29T02:40:25;93505.59;;;16.42;92.23
10606;BME280;5350;42.698;23.148;2023-07-29T02:42:52;93515.66;;;16.36;92.77
10606;BME280;5350;42.698;23.148;2023-07-29T02:45:19;93518.13;;;16.41;92.45
10606;BME280;5350;42.698;23.148;2023-07-29T02:47:46;93519.88;;;16.37;92.65
10606;BME280;5350;42.698;23.148;2023-07-29T02:50:15;93519.75;;;16.34;93.06
10606;BME280;5350;42.698;23.148;2023-07-29T02:52:42;93516.56;;;16.40;93.51
10606;BME280;5350;42.698;23.148;2023-07-29T02:55:08;93517.91;;;16.46;92.82
10606;BME280;5350;42.698;23.148;2023-07-29T02:57:35;93531.50;;;16.65;91.73
10606;BME280;5350;42.698;23.148;2023-07-29T03:00:02;93512.66;;;16.58;90.18
10606;BME280;5350;42.698;23.148;2023-07-29T03:02:29;93520.41;;;16.51;90.99
10606;BME280;5350;42.698;23.148;2023-07-29T03:04:56;93524.94;;;16.30;92.65
10606;BME280;5350;42.698;23.148;2023-07-29T03:07:25;93543.53;;;16.10;94.19
10606;BME280;5350;42.698;23.148;2023-07-29T03:09:52;93528.78;;;16.21;95.01
10606;BME280;5350;42.698;23.148;2023-07-29T03:12:18;93540.53;;;16.11;97.10
10606;BME280;5350;42.698;23.148;2023-07-29T03:14:47;93541.72;;;15.81;99.61
10606;BME280;5350;42.698;23.148;2023-07-29T03:17:14;93542.03;;;15.79;99.36
10606;BME280;5350;42.698;23.148;2023-07-29T03:19:41;93542.22;;;15.74;99.49
10606;BME280;5350;42.698;23.148;2023-07-29T03:22:08;93535.28;;;15.61;100.00
10606;BME280;5350;42.698;23.148;2023-07-29T03:24:36;93540.72;;;15.85;97.97
10606;BME280;5350;42.698;23.148;2023-07-29T03:27:03;93532.66;;;15.82;97.52
10606;BME280;5350;42.698;23.148;2023-07-29T03:29:31;93530.56;;;15.67;99.37
10606;BME280;5350;42.698;23.148;2023-07-29T03:31:58;93529.59;;;15.71;98.29
10606;BME280;5350;42.698;23.148;2023-07-29T03:34:25;93542.53;;;15.73;98.18
10606;BME280;5350;42.698;23.148;2023-07-29T03:36:52;93533.53;;;15.45;100.00
10606;BME280;5350;42.698;23.148;2023-07-29T03:39:19;93532.69;;;15.53;100.00
10606;BME280;5350;42.698;23.148;2023-07-29T03:41:48;93538.16;;;15.77;99.27
10606;BME280;5350;42.698;23.148;2023-07-29T03:44:15;93517.13;;;15.72;98.30
10606;BME280;5350;42.698;23.148;2023-07-29T03:46:43;93532.66;;;15.82;98.95
10606;BME280;5350;42.698;23.148;2023-07-29T03:49:09;93533.56;;;15.86;98.79
10606;BME280;5350;42.698;23.148;2023-07-29T03:51:36;93543.31;;;15.94;98.94
10606;BME280;5350;42.698;23.148;2023-07-29T03:54:03;93545.13;;;16.02;99.47
10606;BME280;5350;42.698;23.148;2023-07-29T03:56:30;93528.31;;;15.98;98.63
10606;BME280;5350;42.698;23.148;2023-07-29T03:59:04;93536.47;;;16.14;98.21
10606;BME280;5350;42.698;23.148;2023-07-29T04:01:32;93532.41;;;16.16;98.04
10606;BME280;5350;42.698;23.148;2023-07-29T04:03:59;93549.91;;;16.29;96.38
10606;BME280;5350;42.698;23.148;2023-07-29T04:06:26;93468.38;;;15.85;95.63
10606;BME280;5350;42.698;23.148;2023-07-29T04:08:53;93538.69;;;16.44;94.82
10606;BME280;5350;42.698;23.148;2023-07-29T04:11:19;93539.44;;;16.53;93.43
10606;BME280;5350;42.698;23.148;2023-07-29T04:13:46;93542.78;;;16.62;92.75
10606;BME280;5350;42.698;23.148;2023-07-29T04:16:15;93520.63;;;16.58;92.37
10606;BME280;5350;42.698;23.148;2023-07-29T04:18:42;93540.81;;;16.84;92.64
10606;BME280;5350;42.698;23.148;2023-07-29T04:21:09;93541.19;;;16.94;91.34
10606;BME280;5350;42.698;23.148;2023-07-29T04:23:36;93540.19;;;16.99;89.98
10606;BME280;5350;42.698;23.148;2023-07-29T04:26:03;93548.63;;;17.13;89.99
10606;BME280;5350;42.698;23.148;2023-07-29T04:28:29;93549.84;;;17.15;89.80
10606;BME280;5350;42.698;23.148;2023-07-29T04:30:56;93543.44;;;17.28;88.43
10606;BME280;5350;42.698;23.148;2023-07-29T04:33:24;93550.75;;;17.43;88.19
10606;BME280;5350;42.698;23.148;2023-07-29T04:35:51;93555.41;;;17.46;88.57
10606;BME280;5350;42.698;23.148;2023-07-29T04:38:18;93546.47;;;17.51;86.92
10606;BME280;5350;42.698;23.148;2023-07-29T04:40:45;93548.34;;;17.63;87.05
10606;BME280;5350;42.698;23.148;2023-07-29T04:43:11;93559.97;;;17.70;87.79
10606;BME280;5350;42.698;23.148;2023-07-29T04:45:42;93558.84;;;17.83;87.08
10606;BME280;5350;42.698;23.148;2023-07-29T04:48:09;93559.41;;;17.89;85.73
10606;BME280;5350;42.698;23.148;2023-07-29T04:50:37;93562.59;;;17.94;85.87
10606;BME280;5350;42.698;23.148;2023-07-29T04:53:04;93565.69;;;18.08;85.49
10606;BME280;5350;42.698;23.148;2023-07-29T04:55:31;93576.53;;;18.15;85.98
10606;BME280;5350;42.698;23.148;2023-07-29T04:57:58;93568.88;;;18.14;85.91
10606;BME280;5350;42.698;23.148;2023-07-29T05:00:26;93570.72;;;18.25;83.72
10606;BME280;5350;42.698;23.148;2023-07-29T05:02:52;93581.38;;;18.38;83.31
10606;BME280;5350;42.698;23.148;2023-07-29T05:05:19;93574.91;;;18.51;83.46
10606;BME280;5350;42.698;23.148;2023-07-29T05:07:47;93582.88;;;18.63;82.16
10606;BME280;5350;42.698;23.148;2023-07-29T05:10:14;93583.03;;;18.70;79.75
10606;BME280;5350;42.698;23.148;2023-07-29T05:12:41;93588.06;;;18.87;79.85
10606;BME280;5350;42.698;23.148;2023-07-29T05:15:09;93588.75;;;18.84;80.66
10606;BME280;5350;42.698;23.148;2023-07-29T05:17:36;93590.94;;;18.94;79.75
10606;BME280;5350;42.698;23.148;2023-07-29T05:20:04;93583.66;;;19.06;79.72
10606;BME280;5350;42.698;23.148;2023-07-29T05:22:31;93586.91;;;19.15;78.54
10606;BME280;5350;42.698;23.148;2023-07-29T05:24:59;93596.38;;;19.29;78.52
10606;BME280;5350;42.698;23.148;2023-07-29T05:27:26;93595.13;;;19.38;79.05
10606;BME280;5350;42.698;23.148;2023-07-29T05:29:53;93601.50;;;19.49;78.57
10606;BME280;5350;42.698;23.148;2023-07-29T05:32:20;93586.34;;;19.53;78.37
10606;BME280;5350;42.698;23.148;2023-07-29T05:34:46;93595.41;;;19.64;77.72
10606;BME280;5350;42.698;23.148;2023-07-29T05:37:13;93608.72;;;19.80;76.32
10606;BME280;5350;42.698;23.148;2023-07-29T05:39:40;93600.34;;;19.97;75.03
10606;BME280;5350;42.698;23.148;2023-07-29T05:42:08;93561.28;;;19.73;74.07
10606;BME280;5350;42.698;23.148;2023-07-29T05:44:35;93598.41;;;20.13;72.59
10606;BME280;5350;42.698;23.148;2023-07-29T05:47:02;93606.34;;;20.25;70.15
10606;BME280;5350;42.698;23.148;2023-07-29T05:49:29;93596.41;;;20.26;68.40
10606;BME280;5350;42.698;23.148;2023-07-29T05:51:56;93608.28;;;20.44;69.15
10606;BME280;5350;42.698;23.148;2023-07-29T05:54:23;93603.22;;;20.58;69.13
10606;BME280;5350;42.698;23.148;2023-07-29T05:56:49;93612.66;;;20.71;69.06
10606;BME280;5350;42.698;23.148;2023-07-29T05:59:18;93600.25;;;20.82;68.71
10606;BME280;5350;42.698;23.148;2023-07-29T06:01:44;93603.13;;;20.93;67.23
10606;BME280;5350;42.698;23.148;2023-07-29T06:04:12;93602.13;;;21.01;66.65
10606;BME280;5350;42.698;23.148;2023-07-29T06:06:39;93591.34;;;21.13;66.45
10606;BME280;5350;42.698;23.148;2023-07-29T06:09:06;93601.63;;;21.33;66.06
10606;BME280;5350;42.698;23.148;2023-07-29T06:11:33;93603.47;;;21.52;65.14
10606;BME280;5350;42.698;23.148;2023-07-29T06:13:59;93579.25;;;21.68;63.82
10606;BME280;5350;42.698;23.148;2023-07-29T06:16:27;93596.66;;;21.81;62.81
10606;BME280;5350;42.698;23.148;2023-07-29T06:18:54;93587.59;;;21.85;63.08
10606;BME280;5350;42.698;23.148;2023-07-29T06:21:21;93591.97;;;21.97;61.31
10606;BME280;5350;42.698;23.148;2023-07-29T06:23:48;93585.94;;;22.03;61.06
10606;BME280;5350;42.698;23.148;2023-07-29T06:26:14;93580.34;;;22.12;62.05
10606;BME280;5350;42.698;23.148;2023-07-29T06:28:41;93578.59;;;22.23;62.34
10606;BME280;5350;42.698;23.148;2023-07-29T06:31:08;93585.72;;;22.42;56.63
10606;BME280;5350;42.698;23.148;2023-07-29T06:33:37;93577.44;;;22.54;56.68
10606;BME280;5350;42.698;23.148;2023-07-29T06:36:04;93577.19;;;22.62;60.85
10606;BME280;5350;42.698;23.148;2023-07-29T06:38:31;93578.91;;;22.77;63.47
10606;BME280;5350;42.698;23.148;2023-07-29T06:40:58;93571.75;;;22.88;60.87
10606;BME280;5350;42.698;23.148;2023-07-29T06:43:26;93584.19;;;23.03;58.03
10606;BME280;5350;42.698;23.148;2023-07-29T06:45:53;93579.00;;;23.21;57.05
10606;BME280;5350;42.698;23.148;2023-07-29T06:48:20;93575.78;;;23.42;56.56
10606;BME280;5350;42.698;23.148;2023-07-29T06:50:49;93586.94;;;23.47;55.05
10606;BME280;5350;42.698;23.148;2023-07-29T06:53:16;93582.38;;;23.51;55.86
10606;BME280;5350;42.698;23.148;2023-07-29T06:55:43;93588.69;;;23.69;55.64
10606;BME280;5350;42.698;23.148;2023-07-29T06:58:10;93592.53;;;23.72;55.54
10606;BME280;5350;42.698;23.148;2023-07-29T07:00:37;93591.56;;;23.94;53.95
10606;BME280;5350;42.698;23.148;2023-07-29T07:03:04;93588.47;;;23.92;54.08
10606;BME280;5350;42.698;23.148;2023-07-29T07:05:31;93579.03;;;24.05;53.75
10606;BME280;5350;42.698;23.148;2023-07-29T07:07:59;93577.22;;;24.23;53.39
10606;BME280;5350;42.698;23.148;2023-07-29T07:10:25;93573.81;;;24.37;53.07
10606;BME280;5350;42.698;23.148;2023-07-29T07:12:52;93594.19;;;24.34;53.06
10606;BME280;5350;42.698;23.148;2023-07-29T07:15:19;93567.69;;;24.36;54.52
10606;BME280;5350;42.698;23.148;2023-07-29T07:17:46;93576.22;;;24.56;53.03
10606;BME280;5350;42.698;23.148;2023-07-29T07:20:12;93571.72;;;24.74;52.18
10606;BME280;5350;42.698;23.148;2023-07-29T07:22:39;93571.75;;;24.85;52.45
10606;BME280;5350;42.698;23.148;2023-07-29T07:25:08;93578.72;;;25.00;50.94
10606;BME280;5350;42.698;23.148;2023-07-29T07:27:35;93577.28;;;25.20;52.10
10606;BME280;5350;42.698;23.148;2023-07-29T07:30:02;93574.22;;;25.32;50.68
10606;BME280;5350;42.698;23.148;2023-07-29T07:32:30;93571.97;;;25.55;47.91
10606;BME280;5350;42.698;23.148;2023-07-29T07:34:57;93563.50;;;25.60;47.00
10606;BME280;5350;42.698;23.148;2023-07-29T07:37:23;93559.66;;;25.72;49.53
10606;BME280;5350;42.698;23.148;2023-07-29T07:39:50;93568.50;;;25.93;49.09
10606;BME280;5350;42.698;23.148;2023-07-29T07:42:19;93566.19;;;26.02;49.89
10606;BME280;5350;42.698;23.148;2023-07-29T07:44:46;93553.47;;;26.06;48.80
10606;BME280;5350;42.698;23.148;2023-07-29T07:47:13;93562.69;;;26.34;44.75
10606;BME280;5350;42.698;23.148;2023-07-29T07:49:39;93556.53;;;26.33;45.06
10606;BME280;5350;42.698;23.148;2023-07-29T07:52:07;93562.31;;;26.35;44.95
10606;BME280;5350;42.698;23.148;2023-07-29T07:54:33;93571.13;;;26.53;44.97
10606;BME280;5350;42.698;23.148;2023-07-29T07:57:00;93557.25;;;26.55;44.34
10606;BME280;5350;42.698;23.148;2023-07-29T07:59:28;93561.09;;;26.61;42.92
10606;BME280;5350;42.698;23.148;2023-07-29T08:01:55;93566.47;;;26.68;42.44
10606;BME280;5350;42.698;23.148;2023-07-29T08:04:21;93563.00;;;26.78;45.06
10606;BME280;5350;42.698;23.148;2023-07-29T08:06:48;93570.28;;;26.84;43.48
10606;BME280;5350;42.698;23.148;2023-07-29T08:09:15;93568.66;;;27.01;42.92
10606;BME280;5350;42.698;23.148;2023-07-29T08:11:42;93570.16;;;27.09;41.07
10606;BME280;5350;42.698;23.148;2023-07-29T08:14:08;93564.31;;;27.21;41.65
10606;BME280;5350;42.698;23.148;2023-07-29T08:16:38;93568.53;;;27.26;42.19
10606;BME280;5350;42.698;23.148;2023-07-29T08:19:04;93570.88;;;27.24;42.27
10606;BME280;5350;42.698;23.148;2023-07-29T08:21:32;93571.59;;;27.35;42.60
10606;BME280;5350;42.698;23.148;2023-07-29T08:23:59;93566.91;;;27.42;40.68
10606;BME280;5350;42.698;23.148;2023-07-29T08:26:26;93565.25;;;27.59;40.17
10606;BME280;5350;42.698;23.148;2023-07-29T08:28:53;93577.97;;;27.62;40.44
10606;BME280;5350;42.698;23.148;2023-07-29T08:31:19;93564.81;;;27.67;41.40
10606;BME280;5350;42.698;23.148;2023-07-29T08:33:48;93566.59;;;27.88;41.57
10606;BME280;5350;42.698;23.148;2023-07-29T08:36:15;93557.88;;;28.18;41.09
10606;BME280;5350;42.698;23.148;2023-07-29T08:38:42;93565.78;;;28.39;40.02
10606;BME280;5350;42.698;23.148;2023-07-29T08:41:13;93565.97;;;28.55;39.04
10606;BME280;5350;42.698;23.148;2023-07-29T08:43:44;93562.50;;;28.58;36.34
10606;BME280;5350;42.698;23.148;2023-07-29T08:46:15;93559.41;;;28.60;36.40
10606;BME280;5350;42.698;23.148;2023-07-29T08:48:43;93554.84;;;28.87;36.72
10606;BME280;5350;42.698;23.148;2023-07-29T08:51:12;93547.78;;;28.93;35.68
10606;BME280;5350;42.698;23.148;2023-07-29T08:53:39;93557.31;;;29.04;36.13
10606;BME280;5350;42.698;23.148;2023-07-29T08:56:07;93556.09;;;29.09;34.21
10606;BME280;5350;42.698;23.148;2023-07-29T08:58:35;93542.78;;;29.21;31.96
10606;BME280;5350;42.698;23.148;2023-07-29T09:01:01;93550.34;;;29.37;35.33
10606;BME280;5350;42.698;23.148;2023-07-29T09:03:31;93538.59;;;29.44;35.14
10606;BME280;5350;42.698;23.148;2023-07-29T09:05:58;93545.34;;;29.59;33.38
10606;BME280;5350;42.698;23.148;2023-07-29T09:08:27;93552.84;;;29.48;33.15
10606;BME280;5350;42.698;23.148;2023-07-29T09:10:55;93530.72;;;29.53;34.71
10606;BME280;5350;42.698;23.148;2023-07-29T09:13:23;93532.63;;;29.56;36.15
10606;BME280;5350;42.698;23.148;2023-07-29T09:15:54;93534.22;;;29.80;32.86
10606;BME280;5350;42.698;23.148;2023-07-29T09:18:21;93536.28;;;29.95;33.96
10606;BME280;5350;42.698;23.148;2023-07-29T09:20:51;93529.78;;;30.13;33.79
10606;BME280;5350;42.698;23.148;2023-07-29T09:23:18;93537.88;;;30.16;31.78
10606;BME280;5350;42.698;23.148;2023-07-29T09:25:47;93538.97;;;30.19;31.53
10606;BME280;5350;42.698;23.148;2023-07-29T09:28:15;93538.78;;;30.29;31.80
10606;BME280;5350;42.698;23.148;2023-07-29T09:30:45;93531.41;;;30.10;31.49
10606;BME280;5350;42.698;23.148;2023-07-29T09:33:13;93518.75;;;30.23;30.43
10606;BME280;5350;42.698;23.148;2023-07-29T09:35:42;93527.56;;;30.31;30.91
10606;BME280;5350;42.698;23.148;2023-07-29T09:38:14;93510.94;;;30.25;31.24
10606;BME280;5350;42.698;23.148;2023-07-29T09:40:42;93515.47;;;30.35;30.80
10606;BME280;5350;42.698;23.148;2023-07-29T09:43:11;93518.97;;;30.55;31.76
10606;BME280;5350;42.698;23.148;2023-07-29T09:45:39;93511.50;;;30.59;30.10
10606;BME280;5350;42.698;23.148;2023-07-29T09:48:06;93504.06;;;30.63;31.77
10606;BME280;5350;42.698;23.148;2023-07-29T09:50:36;93519.44;;;30.90;33.22
10606;BME280;5350;42.698;23.148;2023-07-29T09:53:07;93511.31;;;30.90;30.86
10606;BME280;5350;42.698;23.148;2023-07-29T09:55:34;93510.38;;;31.16;33.64
10606;BME280;5350;42.698;23.148;2023-07-29T09:58:02;93495.94;;;31.19;30.40
10606;BME280;5350;42.698;23.148;2023-07-29T10:00:34;93503.09;;;31.29;29.33
10606;BME280;5350;42.698;23.148;2023-07-29T10:03:01;93488.06;;;31.24;32.57
10606;BME280;5350;42.698;23.148;2023-07-29T10:05:28;93498.88;;;31.44;29.02
10606;BME280;5350;42.698;23.148;2023-07-29T10:07:56;93487.53;;;31.29;31.47
10606;BME280;5350;42.698;23.148;2023-07-29T10:10:23;93496.31;;;31.37;32.24
10606;BME280;5350;42.698;23.148;2023-07-29T10:12:51;93481.50;;;31.22;29.93
10606;BME280;5350;42.698;23.148;2023-07-29T10:15:20;93484.31;;;31.54;28.69
10606;BME280;5350;42.698;23.148;2023-07-29T10:17:50;93485.50;;;31.85;30.74
10606;BME280;5350;42.698;23.148;2023-07-29T10:20:17;93464.84;;;32.04;28.29
10606;BME280;5350;42.698;23.148;2023-07-29T10:22:47;93478.06;;;32.18;30.78
10606;BME280;5350;42.698;23.148;2023-07-29T10:25:16;93473.56;;;32.40;29.95
10606;BME280;5350;42.698;23.148;2023-07-29T10:27:47;93455.47;;;32.50;27.64
10606;BME280;5350;42.698;23.148;2023-07-29T10:30:16;93458.59;;;32.77;28.04
10606;BME280;5350;42.698;23.148;2023-07-29T10:32:44;93477.13;;;32.94;30.67
10606;BME280;5350;42.698;23.148;2023-07-29T10:35:13;93465.72;;;32.99;27.60
10606;BME280;5350;42.698;23.148;2023-07-29T10:37:42;93462.34;;;33.08;29.41
10606;BME280;5350;42.698;23.148;2023-07-29T10:40:11;93467.16;;;33.29;27.67
10606;BME280;5350;42.698;23.148;2023-07-29T10:42:59;93458.88;;;33.45;27.96
10606;BME280;5350;42.698;23.148;2023-07-29T10:45:26;93449.94;;;33.57;25.35
10606;BME280;5350;42.698;23.148;2023-07-29T10:47:53;93453.41;;;33.45;26.08
10606;BME280;5350;42.698;23.148;2023-07-29T10:50:21;93455.19;;;33.64;25.98
10606;BME280;5350;42.698;23.148;2023-07-29T10:52:50;93441.38;;;33.80;27.08
10606;BME280;5350;42.698;23.148;2023-07-29T10:55:29;93447.00;;;33.99;25.72
10606;BME280;5350;42.698;23.148;2023-07-29T10:58:14;93447.63;;;34.15;26.85
10606;BME280;5350;42.698;23.148;2023-07-29T11:00:42;93436.34;;;34.26;26.52
10606;BME280;5350;42.698;23.148;2023-07-29T11:03:11;93439.66;;;34.42;23.88
10606;BME280;5350;42.698;23.148;2023-07-29T11:06:04;93436.84;;;33.99;24.64
10606;BME280;5350;42.698;23.148;2023-07-29T11:08:31;93432.88;;;33.78;25.07
10606;BME280;5350;42.698;23.148;2023-07-29T11:11:04;93416.06;;;33.80;24.84
10606;BME280;5350;42.698;23.148;2023-07-29T11:13:32;93409.06;;;33.92;26.70
10606;BME280;5350;42.698;23.148;2023-07-29T11:16:01;93410.41;;;34.21;24.83
10606;BME280;5350;42.698;23.148;2023-07-29T11:18:30;93394.16;;;34.39;23.43
10606;BME280;5350;42.698;23.148;2023-07-29T11:21:01;93380.78;;;34.54;25.17
10606;BME280;5350;42.698;23.148;2023-07-29T11:23:31;93387.03;;;34.64;23.86
10606;BME280;5350;42.698;23.148;2023-07-29T11:26:04;93416.38;;;34.72;23.29
10606;BME280;5350;42.698;23.148;2023-07-29T11:28:38;93423.59;;;34.23;23.90
10606;BME280;5350;42.698;23.148;2023-07-29T11:31:06;93404.19;;;34.21;23.38
10606;BME280;5350;42.698;23.148;2023-07-29T11:33:34;93381.00;;;34.04;23.64
10606;BME280;5350;42.698;23.148;2023-07-29T11:36:05;93386.66;;;34.31;26.13
10606;BME280;5350;42.698;23.148;2023-07-29T11:38:32;93375.00;;;34.52;23.03
10606;BME280;5350;42.698;23.148;2023-07-29T11:41:02;93393.72;;;34.93;21.67
10606;BME280;5350;42.698;23.148;2023-07-29T11:43:35;93388.22;;;35.15;21.70
10606;BME280;5350;42.698;23.148;2023-07-29T11:46:03;93385.91;;;35.53;21.73
10606;BME280;5350;42.698;23.148;2023-07-29T11:48:32;93405.25;;;35.68;23.57
10606;BME280;5350;42.698;23.148;2023-07-29T11:51:00;93397.97;;;35.83;23.53
10606;BME280;5350;42.698;23.148;2023-07-29T11:53:30;93393.94;;;36.15;21.14
10606;BME280;5350;42.698;23.148;2023-07-29T11:55:58;93365.91;;;36.38;22.68
10606;BME280;5350;42.698;23.148;2023-07-29T11:58:28;93362.69;;;36.57;21.35
10606;BME280;5350;42.698;23.148;2023-07-29T12:00:56;93384.72;;;36.72;20.43
10606;BME280;5350;42.698;23.148;2023-07-29T12:03:23;93366.38;;;36.54;20.80
10606;BME280;5350;42.698;23.148;2023-07-29T12:05:51;93393.25;;;36.74;20.59
10606;BME280;5350;42.698;23.148;2023-07-29T12:08:18;93384.25;;;36.92;21.75
10606;BME280;5350;42.698;23.148;2023-07-29T12:10:50;93365.34;;;37.03;19.75
10606;BME280;5350;42.698;23.148;2023-07-29T12:13:17;93380.16;;;37.29;19.92
10606;BME280;5350;42.698;23.148;2023-07-29T12:15:44;93342.34;;;37.33;21.81
10606;BME280;5350;42.698;23.148;2023-07-29T12:18:13;93396.16;;;37.63;20.00
10606;BME280;5350;42.698;23.148;2023-07-29T12:20:43;93359.56;;;37.90;19.34
10606;BME280;5350;42.698;23.148;2023-07-29T12:23:24;93344.94;;;37.60;20.57
10606;BME280;5350;42.698;23.148;2023-07-29T12:25:57;93341.91;;;37.34;21.19
10606;BME280;5350;42.698;23.148;2023-07-29T12:28:25;93333.16;;;36.70;20.70
10606;BME280;5350;42.698;23.148;2023-07-29T12:31:12;93344.06;;;36.88;20.33
10606;BME280;5350;42.698;23.148;2023-07-29T12:33:46;93329.31;;;36.77;21.79
10606;BME280;5350;42.698;23.148;2023-07-29T12:36:21;93339.28;;;37.40;20.46
10606;BME280;5350;42.698;23.148;2023-07-29T12:38:51;93343.03;;;37.75;21.45
10606;BME280;5350;42.698;23.148;2023-07-29T12:41:27;93347.41;;;38.20;20.96
10606;BME280;5350;42.698;23.148;2023-07-29T12:44:01;93337.34;;;38.41;19.38
10606;BME280;5350;42.698;23.148;2023-07-29T12:46:29;93343.31;;;38.83;22.31
10606;BME280;5350;42.698;23.148;2023-07-29T12:48:57;93313.81;;;38.98;20.60
10606;BME280;5350;42.698;23.148;2023-07-29T12:51:25;93322.50;;;39.26;18.38
10606;BME280;5350;42.698;23.148;2023-07-29T12:53:53;93318.72;;;39.23;17.84
10606;BME280;5350;42.698;23.148;2023-07-29T12:56:29;93334.38;;;39.02;19.52
10606;BME280;5350;42.698;23.148;2023-07-29T12:58:57;93315.34;;;38.99;19.05
10606;BME280;5350;42.698;23.148;2023-07-29T13:01:29;93317.22;;;39.42;17.98
10606;BME280;5350;42.698;23.148;2023-07-29T13:03:57;93359.25;;;39.77;18.26
10606;BME280;5350;42.698;23.148;2023-07-29T13:06:25;93316.34;;;39.51;17.18